Ivdel, Russia
Current Conditions -  °F | °C
As of 1:00 PM on Friday 21 Nov 2014 (Local Time) from USPP Reporting Station
Broken Clouds Broken Clouds  
Wind Chill: 24°   Ceiling: 1200
Heat Index: 34°   Visibility: 6mi
Dew Point: 30°   Wind: 13mph
Humidity: 87%   Direction: 270°W
Pressure: 30.27"   Gusts: NA
Location:  60.69°N, 60.42°E
Report Text: USPP 210800Z 27006MPS 9999 BKN012 BKN070 01/M01 Q1025 21320138NOSIG RMK QFE758/1011
Loading
Personal Weather Stations






























Interactive Weather Map New forecast layout! Learn more

10-Day Weather Forecast

Advertisements
Track Severe Weather on mobile